Time;durP1;ratioP1;P1;durP2;ratioP2;P2;SDS_P1;SDS_P2;PMS_P1;PMS_P2;Temp;Humidity;BMP_temperature;BMP_pressure;BME280_temperature;BME280_humidity;BME280_pressure;Samples;Min_cycle;Max_cycle;Signal;HPM_P1;HPM_P2
2023/07/24 00:02:26;;;;;;;29.63;15.38;;;23.80;99.00;;;;;;5070971;28;20399;-55
2023/07/24 00:05:30;;;;;;;30.35;16.38;;;23.80;99.20;;;;;;5071729;28;20043;-54
2023/07/24 00:08:34;;;;;;;27.20;15.55;;;23.80;99.30;;;;;;5071486;28;20075;-54
2023/07/24 00:11:38;;;;;;;32.05;15.38;;;23.80;99.40;;;;;;5070900;28;20342;-53
2023/07/24 00:14:42;;;;;;;29.65;16.75;;;23.80;99.70;;;;;;5071399;28;20043;-49
2023/07/24 00:17:46;;;;;;;30.40;15.80;;;23.70;99.90;;;;;;5071168;28;20410;-53
2023/07/24 00:20:50;;;;;;;29.17;15.77;;;23.50;99.90;;;;;;5071473;28;20055;-51
2023/07/24 00:23:54;;;;;;;28.23;16.40;;;23.40;99.90;;;;;;5071141;28;20040;-52
2023/07/24 00:26:58;;;;;;;33.20;15.80;;;23.20;99.90;;;;;;5071159;28;20059;-51
2023/07/24 00:30:02;;;;;;;30.13;16.40;;;22.90;99.90;;;;;;5071113;28;20055;-50
2023/07/24 00:33:06;;;;;;;27.52;16.08;;;22.90;99.90;;;;;;5058403;28;20044;-49
2023/07/24 00:36:10;;;;;;;27.80;15.63;;;22.80;99.90;;;;;;5071102;28;20423;-48
2023/07/24 00:39:15;;;;;;;27.98;15.93;;;22.70;99.90;;;;;;5071052;28;20039;-52
2023/07/24 00:42:19;;;;;;;33.13;17.13;;;22.70;99.90;;;;;;5058319;28;20510;-54
2023/07/24 00:45:25;;;;;;;27.85;16.35;;;22.70;99.90;;;;;;5058574;28;20051;-51
2023/07/24 00:48:30;;;;;;;29.38;16.05;;;22.70;99.90;;;;;;5071081;28;20067;-52
2023/07/24 00:51:34;;;;;;;32.85;17.08;;;22.70;99.90;;;;;;5070432;28;20044;-53
2023/07/24 00:54:38;;;;;;;30.70;16.17;;;22.60;99.90;;;;;;5058303;28;20048;-49
2023/07/24 00:57:43;;;;;;;27.35;15.07;;;22.60;99.90;;;;;;5070568;28;20055;-49
2023/07/24 01:00:47;;;;;;;25.70;14.65;;;22.50;99.90;;;;;;5065657;28;20047;-50
2023/07/24 01:03:52;;;;;;;28.48;16.33;;;22.50;99.90;;;;;;5057705;28;20067;-49
2023/07/24 01:06:55;;;;;;;31.30;16.42;;;22.50;99.90;;;;;;5070052;28;20051;-52
2023/07/24 01:10:00;;;;;;;32.25;15.38;;;22.40;99.90;;;;;;5070203;28;20506;-50
2023/07/24 01:13:14;;;;;;;29.63;15.93;;;22.40;99.90;;;;;;5057406;28;20506;-53
2023/07/24 01:16:21;;;;;;;30.65;16.15;;;22.40;99.90;;;;;;5057899;28;20063;-52
2023/07/24 01:19:48;;;;;;;26.85;15.50;;;22.50;99.90;;;;;;5069960;28;20043;-51
2023/07/24 01:23:28;;;;;;;28.15;15.68;;;22.60;99.90;;;;;;5056558;28;20554;-52
2023/07/24 01:26:32;;;;;;;26.60;14.88;;;22.70;99.90;;;;;;5063820;28;20387;-54
2023/07/24 01:29:36;;;;;;;29.45;16.15;;;22.80;99.90;;;;;;5060186;28;20035;-54
2023/07/24 01:32:40;;;;;;;28.40;15.82;;;22.80;99.90;;;;;;5038524;28;20044;-53
2023/07/24 01:35:50;;;;;;;29.90;15.05;;;22.80;99.90;;;;;;5050926;28;20048;-53
2023/07/24 01:38:54;;;;;;;32.38;15.95;;;22.70;99.90;;;;;;5060984;28;20039;-54
2023/07/24 01:41:58;;;;;;;28.88;14.80;;;22.70;99.90;;;;;;5067707;28;21114;-54
2023/07/24 01:45:04;;;;;;;29.33;15.18;;;22.60;99.90;;;;;;5070951;28;20411;-52
2023/07/24 01:48:08;;;;;;;30.50;14.65;;;22.50;99.90;;;;;;5058816;28;20075;-55
2023/07/24 01:51:12;;;;;;;27.33;14.23;;;22.40;99.90;;;;;;5071073;28;20055;-55
2023/07/24 01:54:15;;;;;;;28.27;14.85;;;22.40;99.90;;;;;;5070677;28;20513;-51
2023/07/24 01:57:20;;;;;;;29.15;14.65;;;22.40;99.90;;;;;;5070974;28;20103;-50
2023/07/24 02:00:23;;;;;;;27.23;13.60;;;22.50;99.90;;;;;;5058713;28;20044;-53
2023/07/24 02:03:35;;;;;;;25.65;14.23;;;22.50;99.90;;;;;;5070220;28;20047;-53
2023/07/24 02:06:39;;;;;;;25.42;15.18;;;22.50;99.90;;;;;;5070535;28;20055;-53
2023/07/24 02:09:43;;;;;;;25.10;14.57;;;22.40;99.90;;;;;;5057767;28;20044;-53
2023/07/24 02:12:47;;;;;;;27.10;14.35;;;22.40;99.90;;;;;;5070519;28;20391;-55
2023/07/24 02:15:51;;;;;;;30.58;15.27;;;22.30;99.90;;;;;;5070120;28;20043;-54
2023/07/24 02:18:56;;;;;;;28.40;15.98;;;22.30;99.90;;;;;;5070520;28;20051;-55
2023/07/24 02:22:00;;;;;;;26.75;14.60;;;22.30;99.90;;;;;;5057749;28;20052;-52
2023/07/24 02:25:04;;;;;;;29.23;16.00;;;21.80;99.90;;;;;;5057718;28;20403;-51
2023/07/24 02:28:07;;;;;;;29.98;16.30;;;21.60;99.90;;;;;;5070182;28;20056;-54
2023/07/24 02:31:13;;;;;;;30.60;15.93;;;21.50;99.90;;;;;;5068759;28;20047;-51
2023/07/24 02:34:17;;;;;;;28.10;15.18;;;21.40;99.90;;;;;;5069896;28;20044;-51
2023/07/24 02:37:21;;;;;;;25.40;14.63;;;21.40;99.90;;;;;;5070252;28;20504;-52
2023/07/24 02:40:25;;;;;;;27.13;14.60;;;21.30;99.90;;;;;;5070132;28;20040;-53
2023/07/24 02:43:28;;;;;;;29.65;16.88;;;21.20;99.90;;;;;;5069870;28;20055;-51
2023/07/24 02:46:33;;;;;;;30.92;15.95;;;21.00;99.90;;;;;;5070165;28;20043;-53
2023/07/24 02:49:37;;;;;;;25.08;15.18;;;21.00;99.90;;;;;;5070103;28;20513;-51
2023/07/24 02:52:40;;;;;;;32.60;16.58;;;20.90;99.90;;;;;;5069924;28;20047;-50
2023/07/24 02:55:44;;;;;;;29.85;16.00;;;20.80;99.90;;;;;;5069550;28;20051;-50
2023/07/24 02:58:49;;;;;;;35.28;16.27;;;20.70;99.90;;;;;;5057448;28;20035;-51
2023/07/24 03:01:53;;;;;;;28.20;16.27;;;20.60;99.90;;;;;;5069776;28;20048;-49
2023/07/24 03:04:57;;;;;;;32.80;17.05;;;20.60;99.90;;;;;;5059310;28;20403;-53
2023/07/24 03:08:00;;;;;;;30.00;16.58;;;20.40;99.90;;;;;;5073521;28;20052;-53
2023/07/24 03:11:05;;;;;;;29.77;15.98;;;20.50;99.90;;;;;;5061590;28;20043;-53
2023/07/24 03:14:10;;;;;;;24.42;14.40;;;20.70;99.90;;;;;;5073323;28;20047;-52
2023/07/24 03:17:14;;;;;;;25.67;12.50;;;21.00;99.90;;;;;;5073815;28;20103;-54
2023/07/24 03:20:19;;;;;;;24.95;12.15;;;21.40;99.90;;;;;;5073474;28;20426;-50
2023/07/24 03:23:23;;;;;;;30.45;15.98;;;21.70;99.90;;;;;;5073267;28;20044;-52
2023/07/24 03:26:27;;;;;;;30.05;15.73;;;21.20;99.90;;;;;;5060747;28;20047;-51
2023/07/24 03:29:31;;;;;;;36.67;17.10;;;20.40;99.90;;;;;;5073493;28;20402;-55
2023/07/24 03:32:37;;;;;;;33.28;17.00;;;20.40;99.90;;;;;;5060344;28;20036;-53
2023/07/24 03:35:41;;;;;;;29.08;15.68;;;19.90;99.90;;;;;;5072829;28;20107;-53
2023/07/24 03:38:45;;;;;;;29.15;16.40;;;20.00;99.90;;;;;;5073132;28;20069;-54
2023/07/24 03:41:49;;;;;;;38.00;16.75;;;20.10;99.90;;;;;;5068114;28;20036;-51
2023/07/24 03:44:54;;;;;;;35.60;16.10;;;20.30;99.90;;;;;;5056944;28;20052;-53
2023/07/24 03:47:58;;;;;;;31.13;15.77;;;20.40;99.90;;;;;;5073075;28;20051;-51
2023/07/24 03:51:02;;;;;;;28.88;14.75;;;20.60;99.90;;;;;;5073313;28;20510;-52
2023/07/24 03:54:05;;;;;;;27.10;14.30;;;20.90;99.90;;;;;;5070728;28;20051;-53
2023/07/24 03:57:09;;;;;;;25.23;13.63;;;21.00;99.90;;;;;;5073060;28;20044;-51
2023/07/24 04:00:14;;;;;;;28.33;13.75;;;21.20;99.90;;;;;;5073333;28;20119;-55
2023/07/24 04:03:18;;;;;;;24.60;13.13;;;21.30;99.90;;;;;;5072735;28;20047;-49
2023/07/24 04:06:22;;;;;;;23.77;12.80;;;21.50;99.90;;;;;;5072542;28;20059;-50
2023/07/24 04:09:25;;;;;;;26.42;12.65;;;21.70;99.90;;;;;;5072966;28;20051;-52
2023/07/24 04:12:30;;;;;;;18.08;9.60;;;21.80;99.90;;;;;;5072708;28;20353;-51
2023/07/24 04:15:34;;;;;;;24.00;10.15;;;22.10;99.90;;;;;;5072347;28;20040;-49
2023/07/24 04:18:38;;;;;;;18.45;8.30;;;22.50;99.90;;;;;;5072746;28;20061;-49
2023/07/24 04:21:41;;;;;;;26.67;12.82;;;23.00;99.90;;;;;;5072535;28;20473;-49
2023/07/24 04:24:45;;;;;;;26.25;13.02;;;22.50;99.90;;;;;;5072528;28;20411;-50
2023/07/24 04:27:49;;;;;;;29.88;15.02;;;22.10;99.90;;;;;;5072279;28;20043;-51
2023/07/24 04:30:53;;;;;;;25.15;14.25;;;21.90;99.90;;;;;;5072674;28;20051;-54
2023/07/24 04:33:57;;;;;;;24.10;13.98;;;21.80;99.90;;;;;;5071551;28;20047;-49
2023/07/24 04:37:01;;;;;;;26.40;14.02;;;21.70;99.90;;;;;;5072054;28;20403;-49
2023/07/24 04:40:06;;;;;;;27.92;15.77;;;21.60;99.90;;;;;;5072569;28;20059;-52
2023/07/24 04:43:10;;;;;;;30.92;15.45;;;21.50;99.90;;;;;;5072421;28;20048;-53
2023/07/24 04:46:14;;;;;;;29.70;15.32;;;21.40;99.90;;;;;;5072095;28;20055;-51
2023/07/24 04:49:18;;;;;;;31.63;15.85;;;21.30;99.90;;;;;;5071738;28;20044;-49
2023/07/24 04:52:22;;;;;;;30.90;16.48;;;21.30;99.90;;;;;;5071981;28;20039;-54
2023/07/24 04:55:26;;;;;;;30.13;14.60;;;21.20;99.90;;;;;;5071872;28;20048;-50
2023/07/24 04:58:30;;;;;;;34.00;16.58;;;21.20;99.90;;;;;;5072103;28;20047;-51
2023/07/24 05:01:34;;;;;;;29.00;14.73;;;21.10;99.90;;;;;;5071644;28;20391;-52
2023/07/24 05:04:38;;;;;;;34.85;15.80;;;21.00;99.90;;;;;;5071676;28;20048;-52
2023/07/24 05:07:42;;;;;;;31.10;15.52;;;20.60;99.90;;;;;;5079138;22;20076;-59
2023/07/24 05:10:46;;;;;;;34.88;16.20;;;20.70;99.90;;;;;;5066271;28;20042;-62
2023/07/24 05:13:49;;;;;;;29.50;16.83;;;20.50;99.90;;;;;;5070138;28;20035;-62
2023/07/24 05:16:53;;;;;;;31.50;15.95;;;20.40;99.90;;;;;;5067161;28;20043;-62
2023/07/24 05:19:57;;;;;;;26.48;15.43;;;20.50;99.90;;;;;;5067468;28;20074;-61
2023/07/24 05:23:01;;;;;;;31.88;15.63;;;20.80;99.90;;;;;;5071217;28;20051;-62
2023/07/24 05:26:05;;;;;;;32.75;14.65;;;21.80;99.90;;;;;;5070702;28;20044;-59
2023/07/24 05:29:09;;;;;;;28.45;13.07;;;23.10;99.90;;;;;;5070486;28;20047;-61
2023/07/24 05:32:13;;;;;;;26.67;14.10;;;23.70;99.90;;;;;;5070251;28;20051;-62
2023/07/24 05:35:17;;;;;;;34.10;14.85;;;24.20;99.90;;;;;;5067111;28;20091;-63
2023/07/24 05:38:21;;;;;;;29.92;13.85;;;24.00;99.90;;;;;;5070447;28;20040;-62
2023/07/24 05:41:25;;;;;;;27.20;13.75;;;23.70;99.90;;;;;;5068572;28;20043;-61
2023/07/24 05:44:29;;;;;;;30.05;15.05;;;23.50;99.90;;;;;;5068837;28;20395;-62
2023/07/24 05:47:34;;;;;;;32.80;14.10;;;23.10;99.90;;;;;;5066283;28;20047;-61
2023/07/24 05:50:38;;;;;;;36.70;14.82;;;22.90;99.90;;;;;;5070788;28;20039;-59
2023/07/24 05:53:42;;;;;;;29.38;13.40;;;22.60;99.90;;;;;;5070984;28;20044;-63
2023/07/24 05:56:46;;;;;;;29.08;12.63;;;22.70;99.90;;;;;;5069815;28;20044;-62
2023/07/24 05:59:51;;;;;;;28.27;13.50;;;23.00;99.90;;;;;;5064729;28;20051;-58
2023/07/24 06:02:55;;;;;;;28.77;13.02;;;23.90;99.90;;;;;;5069562;28;20048;-60
2023/07/24 06:05:59;;;;;;;27.27;12.75;;;25.30;99.90;;;;;;5065315;28;20411;-62
2023/07/24 06:09:03;;;;;;;29.63;12.10;;;26.50;99.90;;;;;;5062297;28;20051;-61
2023/07/24 06:12:07;;;;;;;22.23;11.50;;;26.80;99.90;;;;;;5067203;28;20048;-61
2023/07/24 06:15:11;;;;;;;21.10;11.05;;;27.70;99.90;;;;;;5062268;28;20044;-60
2023/07/24 06:18:15;;;;;;;24.27;10.52;;;29.00;99.90;;;;;;5070161;28;20048;-62
2023/07/24 06:21:19;;;;;;;25.52;10.30;;;30.40;99.90;;;;;;5081177;28;20059;-60
2023/07/24 06:24:23;;;;;;;23.48;11.10;;;31.30;99.90;;;;;;5066195;28;20028;-61
2023/07/24 06:27:28;;;;;;;17.88;9.50;;;32.30;99.90;;;;;;5054995;28;20048;-61
2023/07/24 06:30:32;;;;;;;22.25;9.27;;;32.90;99.30;;;;;;5062528;28;20060;-62
2023/07/24 06:33:36;;;;;;;18.75;9.38;;;33.60;98.20;;;;;;5072204;28;20513;-62
2023/07/24 06:36:40;;;;;;;19.20;7.85;;;34.20;96.70;;;;;;5059015;28;20079;-62
2023/07/24 06:39:44;;;;;;;17.27;7.75;;;34.40;96.30;;;;;;5060140;28;21055;-61
2023/07/24 06:42:48;;;;;;;15.43;7.78;;;34.50;96.70;;;;;;5068329;28;20047;-62
2023/07/24 06:45:52;;;;;;;21.50;8.50;;;33.40;96.60;;;;;;5073655;28;20040;-60
2023/07/24 06:48:56;;;;;;;25.50;7.72;;;32.60;97.40;;;;;;5073761;28;20039;-61
2023/07/24 06:51:59;;;;;;;15.13;6.60;;;32.90;97.50;;;;;;5062589;28;20047;-62
2023/07/24 06:55:04;;;;;;;15.73;7.63;;;33.90;96.40;;;;;;5053798;28;20055;-62
2023/07/24 06:58:08;;;;;;;15.73;7.15;;;34.80;95.30;;;;;;5053587;28;20047;-61
2023/07/24 07:01:12;;;;;;;15.60;7.13;;;35.80;93.80;;;;;;5053702;28;20048;-58
2023/07/24 07:04:16;;;;;;;12.70;6.40;;;36.00;92.70;;;;;;5064481;28;20068;-60
2023/07/24 07:07:19;;;;;;;16.27;7.72;;;36.60;92.00;;;;;;5084968;28;20070;-62
2023/07/24 07:10:24;;;;;;;17.40;7.45;;;37.40;91.40;;;;;;5094450;28;20039;-60
2023/07/24 07:13:28;;;;;;;18.88;8.80;;;36.30;92.30;;;;;;5083551;28;21249;-63
2023/07/24 07:16:32;;;;;;;20.92;8.55;;;35.20;93.10;;;;;;5073960;28;20410;-59
2023/07/24 07:19:36;;;;;;;15.63;8.15;;;34.30;94.40;;;;;;5080461;28;20048;-61
2023/07/24 07:22:40;;;;;;;14.77;8.63;;;33.20;95.60;;;;;;5070377;28;20051;-60
2023/07/24 07:25:46;;;;;;;31.08;9.55;;;32.30;96.70;;;;;;5044885;28;20048;-63
2023/07/24 07:28:50;;;;;;;24.25;9.85;;;31.80;97.40;;;;;;5069268;28;20052;-60
2023/07/24 07:31:54;;;;;;;19.83;8.57;;;31.60;98.00;;;;;;5059013;28;20048;-62
2023/07/24 07:34:58;;;;;;;20.30;9.00;;;33.10;97.20;;;;;;5089783;28;20062;-58
2023/07/24 07:38:03;;;;;;;15.45;7.35;;;34.50;96.00;;;;;;5077497;28;20032;-59
2023/07/24 07:41:07;;;;;;;16.80;7.40;;;35.70;93.50;;;;;;5074325;28;20048;-62
2023/07/24 07:44:11;;;;;;;15.77;7.43;;;36.20;93.20;;;;;;5083264;28;20071;-62
2023/07/24 07:47:15;;;;;;;16.45;7.78;;;35.80;92.70;;;;;;5073974;28;20047;-62
2023/07/24 07:50:19;;;;;;;15.07;7.57;;;35.70;93.30;;;;;;5064146;28;20403;-62
2023/07/24 07:53:23;;;;;;;17.50;7.35;;;35.70;93.10;;;;;;5082037;28;20051;-60
2023/07/24 07:56:28;;;;;;;17.63;7.57;;;34.90;93.40;;;;;;5071636;28;20445;-63
2023/07/24 07:59:33;;;;;;;18.83;7.55;;;32.60;94.30;;;;;;5074685;28;20036;-63
2023/07/24 08:02:40;;;;;;;25.83;8.35;;;32.60;95.30;;;;;;5062757;28;20035;-63
2023/07/24 08:05:44;;;;;;;20.90;7.95;;;31.00;97.20;;;;;;5067205;28;20039;-61
2023/07/24 08:08:48;;;;;;;20.95;8.77;;;29.80;99.90;;;;;;5067587;28;20048;-60
2023/07/24 08:11:52;;;;;;;22.30;8.15;;;28.80;99.90;;;;;;5068124;28;20047;-62
2023/07/24 08:14:56;;;;;;;22.23;8.20;;;28.30;99.90;;;;;;5068087;28;20032;-60
2023/07/24 08:18:00;;;;;;;22.73;8.93;;;28.40;99.90;;;;;;5084649;28;20265;-61
2023/07/24 08:21:04;;;;;;;17.98;8.15;;;28.70;99.90;;;;;;5090269;28;20039;-61
2023/07/24 08:24:08;;;;;;;25.40;8.98;;;28.50;99.90;;;;;;5092889;28;20043;-61
2023/07/24 08:27:12;;;;;;;16.20;7.30;;;29.50;99.90;;;;;;5081333;28;20043;-57
2023/07/24 08:30:16;;;;;;;23.77;8.18;;;31.80;99.90;;;;;;5070540;28;20055;-62
2023/07/24 08:33:20;;;;;;;19.20;7.60;;;32.80;99.90;;;;;;5073669;28;20055;-62
2023/07/24 08:36:24;;;;;;;24.52;7.75;;;33.70;99.10;;;;;;5074622;28;20052;-60
2023/07/24 08:39:28;;;;;;;27.50;9.23;;;32.80;99.40;;;;;;5057864;28;20506;-61
2023/07/24 08:42:33;;;;;;;25.25;9.00;;;29.80;99.90;;;;;;5078462;28;20043;-61
2023/07/24 08:45:37;;;;;;;24.27;9.30;;;29.40;99.90;;;;;;5092242;28;20410;-62
2023/07/24 08:48:42;;;;;;;26.48;9.10;;;29.60;99.90;;;;;;5082717;28;20039;-62
2023/07/24 08:51:47;;;;;;;17.60;7.53;;;30.20;99.90;;;;;;5077388;28;20043;-62
2023/07/24 08:54:52;;;;;;;20.48;8.52;;;32.00;99.90;;;;;;5051582;28;20044;-62
2023/07/24 08:57:57;;;;;;;20.67;7.13;;;31.50;99.90;;;;;;5051527;28;20040;-62
2023/07/24 09:01:03;;;;;;;23.08;7.78;;;33.20;99.90;;;;;;5051737;28;20055;-62
2023/07/24 09:04:07;;;;;;;20.17;7.40;;;32.70;99.60;;;;;;5051488;28;20043;-62
2023/07/24 09:07:12;;;;;;;20.95;7.68;;;33.00;99.60;;;;;;5051421;28;20051;-62
2023/07/24 09:10:16;;;;;;;17.95;7.22;;;33.40;99.60;;;;;;5050856;28;20044;-62
2023/07/24 09:13:20;;;;;;;16.88;6.93;;;34.40;98.60;;;;;;5051316;28;20044;-62
2023/07/24 09:16:25;;;;;;;23.40;7.45;;;33.40;97.50;;;;;;5051182;28;20052;-61
2023/07/24 09:19:29;;;;;;;23.30;6.90;;;34.20;96.80;;;;;;5050837;28;20395;-59
2023/07/24 09:22:33;;;;;;;22.20;6.68;;;36.10;94.90;;;;;;5050975;28;20040;-61
2023/07/24 09:25:39;;;;;;;18.98;6.60;;;35.50;93.80;;;;;;5050867;28;20044;-62
2023/07/24 09:28:54;;;;;;;26.38;7.50;;;36.50;93.70;;;;;;5050891;28;20044;-63
2023/07/24 09:31:59;;;;;;;19.33;6.28;;;36.30;93.30;;;;;;5065998;28;20407;-62
2023/07/24 09:35:03;;;;;;;28.52;6.68;;;37.50;91.50;;;;;;5070811;28;20047;-61
2023/07/24 09:38:09;;;;;;;22.95;6.55;;;37.50;91.00;;;;;;5070875;28;20048;-63
2023/07/24 09:41:14;;;;;;;21.88;5.78;;;36.90;91.30;;;;;;5070736;28;20246;-63
2023/07/24 09:44:18;;;;;;;27.58;6.82;;;37.10;90.40;;;;;;5070895;28;20051;-60
2023/07/24 09:47:22;;;;;;;18.48;6.20;;;37.20;91.10;;;;;;5070865;28;20067;-58
2023/07/24 09:50:27;;;;;;;18.88;5.45;;;36.50;91.10;;;;;;5070621;28;20398;-60
2023/07/24 09:53:39;;;;;;;24.10;6.47;;;36.70;90.40;;;;;;5070570;28;20052;-61
2023/07/24 09:56:43;;;;;;;29.83;6.97;;;36.10;90.00;;;;;;5070851;28;20047;-60
2023/07/24 09:59:48;;;;;;;32.03;6.57;;;35.00;90.20;;;;;;5070918;28;20403;-60
2023/07/24 10:02:52;;;;;;;25.63;7.20;;;35.30;90.20;;;;;;5070792;28;20402;-60
2023/07/24 10:05:56;;;;;;;24.15;5.82;;;36.60;90.30;;;;;;5071053;28;20052;-62
2023/07/24 10:09:01;;;;;;;22.65;5.97;;;38.90;88.20;;;;;;5070436;28;20051;-60
2023/07/24 10:12:05;;;;;;;17.65;6.05;;;38.40;88.40;;;;;;5070716;28;20047;-60
2023/07/24 10:15:10;;;;;;;18.40;6.05;;;38.80;86.90;;;;;;5070786;28;20051;-60
2023/07/24 10:18:17;;;;;;;27.30;6.00;;;40.40;84.60;;;;;;5070672;28;20043;-62
2023/07/24 10:21:27;;;;;;;16.58;5.20;;;39.50;82.90;;;;;;5069910;28;20043;-58
2023/07/24 10:24:32;;;;;;;24.40;5.65;;;40.30;84.10;;;;;;5070173;28;20505;-60
2023/07/24 10:27:41;;;;;;;23.13;6.60;;;40.50;84.30;;;;;;5067052;28;20047;-62
2023/07/24 10:30:56;;;;;;;20.67;5.60;;;39.40;84.40;;;;;;5071739;28;20063;-61
2023/07/24 10:34:05;;;;;;;27.67;6.78;;;40.30;83.70;;;;;;5066937;28;20044;-63
2023/07/24 10:37:12;;;;;;;26.27;6.57;;;37.80;85.10;;;;;;5077171;28;20052;-61
2023/07/24 10:40:22;;;;;;;32.30;6.85;;;37.90;87.00;;;;;;5088885;28;20051;-62
2023/07/24 10:43:27;;;;;;;20.33;6.85;;;36.90;89.40;;;;;;5070404;28;20514;-62
2023/07/24 10:46:39;;;;;;;24.90;5.78;;;36.50;89.70;;;;;;5069031;28;20040;-63
2023/07/24 10:49:49;;;;;;;23.98;6.78;;;37.10;89.80;;;;;;5074579;28;20043;-62
2023/07/24 10:52:53;;;;;;;28.38;7.13;;;37.80;88.30;;;;;;5080596;28;20043;-62
2023/07/24 10:55:59;;;;;;;35.55;7.78;;;37.10;90.00;;;;;;5085876;28;20051;-63
2023/07/24 10:59:05;;;;;;;33.40;6.63;;;36.00;90.30;;;;;;5064111;28;20040;-62
2023/07/24 11:02:10;;;;;;;35.50;6.97;;;35.10;90.00;;;;;;5058272;28;20044;-58
2023/07/24 11:05:14;;;;;;;29.73;7.50;;;35.40;91.00;;;;;;5063713;28;20048;-58
2023/07/24 11:08:20;;;;;;;27.70;7.95;;;34.90;91.70;;;;;;5085140;22;20047;-54
2023/07/24 11:11:32;;;;;;;32.58;6.45;;;34.60;92.10;;;;;;5069401;28;20055;-54
2023/07/24 11:14:36;;;;;;;32.13;6.80;;;36.40;90.70;;;;;;5083198;28;20405;-57
2023/07/24 11:17:41;;;;;;;23.55;6.55;;;36.60;91.10;;;;;;5081714;28;20051;-51
2023/07/24 11:20:51;;;;;;;23.55;7.00;;;36.10;90.80;;;;;;5080740;28;20027;-57
2023/07/24 11:23:56;;;;;;;24.60;6.97;;;38.00;89.40;;;;;;5084924;28;20039;-51
2023/07/24 11:27:00;;;;;;;26.40;6.30;;;38.20;89.30;;;;;;5089646;28;20055;-51
2023/07/24 11:30:05;;;;;;;23.83;6.03;;;37.60;90.60;;;;;;5091254;28;20051;-52
2023/07/24 11:33:11;;;;;;;29.88;6.65;;;39.60;88.30;;;;;;5089803;28;20058;-52
2023/07/24 11:36:16;;;;;;;26.35;6.07;;;39.40;87.20;;;;;;5087729;28;20039;-53
2023/07/24 11:39:24;;;;;;;24.77;7.05;;;38.50;87.70;;;;;;5091623;28;20062;-51
2023/07/24 11:42:27;;;;;;;18.25;6.18;;;37.40;88.50;;;;;;5088256;28;20043;-54
2023/07/24 11:45:42;;;;;;;23.73;7.13;;;38.60;90.00;;;;;;5090004;28;20390;-50
2023/07/24 11:48:46;;;;;;;27.92;6.82;;;39.20;88.00;;;;;;5086408;28;20407;-52
2023/07/24 11:51:51;;;;;;;22.65;6.05;;;39.70;86.40;;;;;;5084037;28;20039;-55
2023/07/24 11:55:03;;;;;;;26.92;6.15;;;40.50;86.50;;;;;;5084274;28;20047;-53
2023/07/24 11:58:07;;;;;;;29.42;6.22;;;40.50;86.80;;;;;;5075224;28;20047;-54
2023/07/24 12:01:14;;;;;;;29.90;6.20;;;38.40;88.90;;;;;;5087443;28;20039;-53
2023/07/24 12:04:20;;;;;;;29.27;6.93;;;37.10;90.40;;;;;;5088290;28;20043;-51
2023/07/24 12:07:33;;;;;;;24.48;6.57;;;37.80;89.90;;;;;;5087455;28;20050;-54
2023/07/24 12:10:40;;;;;;;27.35;7.95;;;38.10;89.60;;;;;;5079445;28;20047;-53
2023/07/24 12:13:44;;;;;;;30.33;6.88;;;38.70;90.00;;;;;;5086970;28;20533;-54
2023/07/24 12:16:48;;;;;;;29.83;7.18;;;37.60;88.40;;;;;;5084253;28;20058;-52
2023/07/24 12:19:52;;;;;;;23.67;6.43;;;39.30;88.20;;;;;;5086921;28;20403;-51
2023/07/24 12:22:57;;;;;;;24.00;6.00;;;40.30;87.70;;;;;;5085271;28;20039;-51
2023/07/24 12:26:01;;;;;;;21.42;6.43;;;39.10;89.20;;;;;;5090023;28;20047;-52
2023/07/24 12:29:05;;;;;;;26.58;7.30;;;39.10;88.10;;;;;;5084501;28;20541;-49
2023/07/24 12:32:09;;;;;;;35.72;7.28;;;38.00;89.40;;;;;;5087611;28;20043;-55
2023/07/24 12:35:13;;;;;;;34.47;7.00;;;38.00;90.40;;;;;;5086641;28;20411;-52
2023/07/24 12:38:17;;;;;;;31.80;7.05;;;38.10;90.00;;;;;;5088787;28;20051;-55
2023/07/24 12:41:21;;;;;;;27.48;6.88;;;38.60;89.60;;;;;;5090072;28;20043;-52
2023/07/24 12:44:26;;;;;;;31.27;6.88;;;37.20;90.40;;;;;;5090009;28;20414;-55
2023/07/24 12:47:31;;;;;;;33.03;7.93;;;38.00;90.40;;;;;;5084937;28;20050;-56
2023/07/24 12:50:35;;;;;;;27.30;7.13;;;36.90;90.80;;;;;;5085174;28;20054;-55
2023/07/24 12:53:39;;;;;;;31.40;7.25;;;36.40;91.50;;;;;;5078634;28;20051;-56
2023/07/24 12:56:43;;;;;;;31.55;8.57;;;36.30;92.00;;;;;;5082893;28;20035;-54
2023/07/24 12:59:49;;;;;;;31.13;7.00;;;35.80;92.20;;;;;;5082543;28;20043;-53
2023/07/24 13:02:53;;;;;;;27.73;7.05;;;35.80;92.70;;;;;;5085349;28;20070;-56
2023/07/24 13:05:57;;;;;;;39.25;8.73;;;35.40;92.90;;;;;;5086727;28;20403;-52
2023/07/24 13:09:01;;;;;;;23.10;6.90;;;35.90;92.20;;;;;;5087423;28;20046;-55
2023/07/24 13:12:06;;;;;;;30.27;7.55;;;36.10;91.90;;;;;;5090599;28;20059;-55
2023/07/24 13:15:10;;;;;;;28.95;7.40;;;36.30;91.60;;;;;;5080727;28;20038;-56
2023/07/24 13:18:19;;;;;;;26.13;6.72;;;36.40;92.10;;;;;;5088013;28;20039;-53
2023/07/24 13:21:24;;;;;;;28.08;7.13;;;36.30;91.10;;;;;;5086948;28;20423;-54
2023/07/24 13:24:27;;;;;;;31.05;7.90;;;36.20;91.70;;;;;;5087194;28;20044;-55
2023/07/24 13:27:31;;;;;;;26.65;6.32;;;36.20;92.40;;;;;;5079735;28;20059;-58
2023/07/24 13:30:35;;;;;;;20.52;7.15;;;36.30;93.10;;;;;;5081470;28;20047;-56
2023/07/24 13:33:40;;;;;;;26.00;6.35;;;36.00;92.40;;;;;;5087086;28;20038;-54
2023/07/24 13:36:44;;;;;;;32.97;6.95;;;35.10;93.60;;;;;;5086254;28;20512;-54
2023/07/24 13:39:48;;;;;;;26.13;7.80;;;34.30;94.40;;;;;;5082201;28;20058;-55
2023/07/24 13:42:51;;;;;;;28.77;6.72;;;34.00;94.00;;;;;;5085222;28;20035;-54
2023/07/24 13:45:56;;;;;;;34.95;7.32;;;33.30;93.80;;;;;;5088475;28;20043;-55
2023/07/24 13:49:00;;;;;;;40.67;8.00;;;33.80;93.90;;;;;;5088958;28;20286;-54
2023/07/24 13:52:04;;;;;;;26.20;8.20;;;34.40;93.60;;;;;;5087248;28;20045;-53
2023/07/24 13:55:08;;;;;;;38.35;7.65;;;35.00;93.30;;;;;;5084684;28;20043;-53
2023/07/24 13:58:12;;;;;;;34.30;8.00;;;34.80;93.60;;;;;;5088458;28;20047;-51
2023/07/24 14:01:16;;;;;;;29.88;7.78;;;34.60;94.00;;;;;;5089575;28;20062;-57
2023/07/24 14:04:20;;;;;;;30.85;8.07;;;34.40;94.30;;;;;;5085802;28;20031;-56
2023/07/24 14:07:25;;;;;;;30.42;7.65;;;34.10;94.80;;;;;;5081719;28;20039;-51
2023/07/24 14:10:29;;;;;;;34.10;7.68;;;33.50;95.10;;;;;;5087572;28;20050;-51
2023/07/24 14:13:33;;;;;;;37.17;7.95;;;33.00;96.30;;;;;;5081684;28;20407;-53
2023/07/24 14:16:36;;;;;;;28.08;7.68;;;32.90;96.80;;;;;;5079187;28;20043;-53
2023/07/24 14:19:40;;;;;;;26.70;7.25;;;33.00;96.70;;;;;;5083532;28;20043;-51
2023/07/24 14:22:44;;;;;;;32.53;8.25;;;32.90;96.90;;;;;;5089308;28;20051;-52
2023/07/24 14:25:48;;;;;;;27.02;8.90;;;33.00;97.00;;;;;;5089431;28;20406;-51
2023/07/24 14:28:52;;;;;;;30.23;7.32;;;33.30;97.30;;;;;;5089063;28;20039;-55
2023/07/24 14:31:56;;;;;;;24.77;7.22;;;33.90;96.90;;;;;;5086595;28;20043;-55
2023/07/24 14:35:00;;;;;;;30.73;7.82;;;34.90;96.60;;;;;;5088368;28;20051;-55
2023/07/24 14:38:04;;;;;;;29.63;7.85;;;35.60;95.70;;;;;;5088810;28;20046;-53
2023/07/24 14:41:08;;;;;;;29.40;7.35;;;35.80;94.90;;;;;;5088847;28;20043;-52
2023/07/24 14:44:12;;;;;;;44.67;8.52;;;35.80;95.40;;;;;;5088528;28;20055;-55
2023/07/24 14:47:16;;;;;;;30.80;7.78;;;35.50;94.80;;;;;;5088726;28;20051;-55
2023/07/24 14:50:20;;;;;;;31.95;7.43;;;35.30;95.40;;;;;;5089108;28;20039;-55
2023/07/24 14:53:24;;;;;;;27.42;7.25;;;34.60;95.90;;;;;;5088776;28;20067;-57
2023/07/24 14:56:28;;;;;;;34.78;7.95;;;33.60;96.80;;;;;;5088326;28;20073;-55
2023/07/24 14:59:32;;;;;;;101.60;11.38;;;33.40;96.90;;;;;;5088973;28;20043;-53
2023/07/24 15:02:36;;;;;;;35.30;7.55;;;33.60;97.40;;;;;;5092361;28;20422;-55
2023/07/24 15:05:40;;;;;;;40.53;8.55;;;33.70;97.00;;;;;;5090938;28;20043;-52
2023/07/24 15:08:44;;;;;;;33.53;7.78;;;33.90;96.60;;;;;;5087130;28;20059;-55
2023/07/24 15:11:48;;;;;;;35.17;8.07;;;33.70;96.40;;;;;;5092523;28;20600;-51
2023/07/24 15:14:52;;;;;;;30.52;8.25;;;33.50;96.90;;;;;;5091691;28;20047;-52
2023/07/24 15:17:57;;;;;;;26.63;8.18;;;33.10;97.30;;;;;;5092276;28;20051;-56
2023/07/24 15:21:01;;;;;;;34.72;7.57;;;32.70;97.80;;;;;;5084333;28;20466;-52
2023/07/24 15:24:05;;;;;;;32.40;8.18;;;32.40;97.40;;;;;;5077599;28;20043;-54
2023/07/24 15:27:09;;;;;;;34.40;8.48;;;32.40;97.10;;;;;;5092625;28;20501;-53
2023/07/24 15:30:13;;;;;;;34.60;9.43;;;32.40;96.70;;;;;;5092795;28;20430;-50
2023/07/24 15:33:17;;;;;;;32.25;7.85;;;32.30;96.90;;;;;;5091970;28;20055;-53
2023/07/24 15:36:22;;;;;;;29.00;7.60;;;32.20;96.20;;;;;;5092738;28;20051;-52
2023/07/24 15:39:26;;;;;;;42.22;8.02;;;32.30;96.20;;;;;;5092523;28;20051;-51
2023/07/24 15:42:30;;;;;;;34.80;8.43;;;32.40;95.70;;;;;;5079568;28;20043;-55
2023/07/24 15:45:33;;;;;;;38.60;8.23;;;32.40;96.60;;;;;;5092172;28;20043;-51